sensor_id;sensor_type;location;lat;lon;timestamp;P1;durP1;ratioP1;P2;durP2;ratioP2
30303;SDS011;17112;48.636;10.152;2023-05-15T00:01:14;3.22;;;2.00;;
30303;SDS011;17112;48.636;10.152;2023-05-15T00:03:40;4.25;;;1.80;;
30303;SDS011;17112;48.636;10.152;2023-05-15T00:06:07;4.93;;;2.13;;
30303;SDS011;17112;48.636;10.152;2023-05-15T00:08:33;5.93;;;2.20;;
30303;SDS011;17112;48.636;10.152;2023-05-15T00:10:59;2.90;;;2.03;;
30303;SDS011;17112;48.636;10.152;2023-05-15T00:13:24;2.20;;;2.00;;
30303;SDS011;17112;48.636;10.152;2023-05-15T00:15:50;2.92;;;1.98;;
30303;SDS011;17112;48.636;10.152;2023-05-15T00:18:15;2.65;;;1.88;;
30303;SDS011;17112;48.636;10.152;2023-05-15T00:20:41;3.55;;;1.90;;
30303;SDS011;17112;48.636;10.152;2023-05-15T00:23:07;4.15;;;1.98;;
30303;SDS011;17112;48.636;10.152;2023-05-15T00:25:33;6.25;;;2.10;;
30303;SDS011;17112;48.636;10.152;2023-05-15T00:27:59;3.58;;;1.80;;
30303;SDS011;17112;48.636;10.152;2023-05-15T00:30:24;3.90;;;2.17;;
30303;SDS011;17112;48.636;10.152;2023-05-15T00:32:50;2.08;;;1.88;;
30303;SDS011;17112;48.636;10.152;2023-05-15T00:35:16;4.93;;;1.85;;
30303;SDS011;17112;48.636;10.152;2023-05-15T00:37:42;2.75;;;2.00;;
30303;SDS011;17112;48.636;10.152;2023-05-15T00:40:08;8.68;;;1.77;;
30303;SDS011;17112;48.636;10.152;2023-05-15T00:42:36;2.55;;;2.30;;
30303;SDS011;17112;48.636;10.152;2023-05-15T00:45:02;3.42;;;2.00;;
30303;SDS011;17112;48.636;10.152;2023-05-15T00:47:31;3.13;;;2.03;;
30303;SDS011;17112;48.636;10.152;2023-05-15T00:49:58;2.50;;;1.98;;
30303;SDS011;17112;48.636;10.152;2023-05-15T00:52:24;2.42;;;2.00;;
30303;SDS011;17112;48.636;10.152;2023-05-15T00:54:50;2.17;;;1.98;;
30303;SDS011;17112;48.636;10.152;2023-05-15T00:57:16;4.40;;;2.05;;
30303;SDS011;17112;48.636;10.152;2023-05-15T00:59:43;5.22;;;2.33;;
30303;SDS011;17112;48.636;10.152;2023-05-15T01:02:10;2.40;;;2.17;;
30303;SDS011;17112;48.636;10.152;2023-05-15T01:04:43;2.63;;;1.92;;
30303;SDS011;17112;48.636;10.152;2023-05-15T01:07:09;2.17;;;1.98;;
30303;SDS011;17112;48.636;10.152;2023-05-15T01:09:34;3.25;;;2.00;;
30303;SDS011;17112;48.636;10.152;2023-05-15T01:12:02;4.15;;;1.90;;
30303;SDS011;17112;48.636;10.152;2023-05-15T01:14:31;5.10;;;2.50;;
30303;SDS011;17112;48.636;10.152;2023-05-15T01:16:57;2.28;;;2.08;;
30303;SDS011;17112;48.636;10.152;2023-05-15T01:19:22;3.50;;;2.00;;
30303;SDS011;17112;48.636;10.152;2023-05-15T01:38:18;5.93;;;2.20;;
30303;SDS011;17112;48.636;10.152;2023-05-15T01:40:43;3.30;;;2.08;;
30303;SDS011;17112;48.636;10.152;2023-05-15T01:43:10;5.53;;;2.30;;
30303;SDS011;17112;48.636;10.152;2023-05-15T01:45:41;1.98;;;1.85;;
30303;SDS011;17112;48.636;10.152;2023-05-15T01:48:07;7.45;;;2.40;;
30303;SDS011;17112;48.636;10.152;2023-05-15T01:50:36;2.47;;;2.28;;
30303;SDS011;17112;48.636;10.152;2023-05-15T01:53:04;2.60;;;2.08;;
30303;SDS011;17112;48.636;10.152;2023-05-15T01:55:33;3.28;;;2.05;;
30303;SDS011;17112;48.636;10.152;2023-05-15T01:58:00;4.30;;;2.33;;
30303;SDS011;17112;48.636;10.152;2023-05-15T02:00:27;6.43;;;2.80;;
30303;SDS011;17112;48.636;10.152;2023-05-15T02:02:53;4.93;;;2.50;;
30303;SDS011;17112;48.636;10.152;2023-05-15T02:05:19;8.80;;;2.45;;
30303;SDS011;17112;48.636;10.152;2023-05-15T02:07:46;3.30;;;2.55;;
30303;SDS011;17112;48.636;10.152;2023-05-15T02:10:13;2.75;;;2.40;;
30303;SDS011;17112;48.636;10.152;2023-05-15T02:12:40;2.42;;;2.22;;
30303;SDS011;17112;48.636;10.152;2023-05-15T02:15:10;4.28;;;2.80;;
30303;SDS011;17112;48.636;10.152;2023-05-15T02:17:38;4.38;;;2.55;;
30303;SDS011;17112;48.636;10.152;2023-05-15T02:20:03;5.25;;;2.60;;
30303;SDS011;17112;48.636;10.152;2023-05-15T02:22:30;2.97;;;2.33;;
30303;SDS011;17112;48.636;10.152;2023-05-15T02:24:56;2.70;;;2.40;;
30303;SDS011;17112;48.636;10.152;2023-05-15T02:27:23;4.53;;;2.17;;
30303;SDS011;17112;48.636;10.152;2023-05-15T02:35:05;2.80;;;2.25;;
30303;SDS011;17112;48.636;10.152;2023-05-15T02:37:55;3.63;;;2.25;;
30303;SDS011;17112;48.636;10.152;2023-05-15T02:40:26;4.78;;;2.47;;
30303;SDS011;17112;48.636;10.152;2023-05-15T02:42:54;2.13;;;1.92;;
30303;SDS011;17112;48.636;10.152;2023-05-15T02:45:21;4.47;;;2.45;;
30303;SDS011;17112;48.636;10.152;2023-05-15T02:47:48;5.57;;;2.38;;
30303;SDS011;17112;48.636;10.152;2023-05-15T02:50:15;2.67;;;2.47;;
30303;SDS011;17112;48.636;10.152;2023-05-15T02:52:41;4.25;;;2.50;;
30303;SDS011;17112;48.636;10.152;2023-05-15T02:55:07;4.18;;;2.35;;
30303;SDS011;17112;48.636;10.152;2023-05-15T02:57:33;4.90;;;2.55;;
30303;SDS011;17112;48.636;10.152;2023-05-15T02:59:59;2.88;;;2.40;;
30303;SDS011;17112;48.636;10.152;2023-05-15T03:02:25;2.95;;;2.50;;
30303;SDS011;17112;48.636;10.152;2023-05-15T03:04:51;3.40;;;2.55;;
30303;SDS011;17112;48.636;10.152;2023-05-15T03:07:17;3.72;;;2.78;;
30303;SDS011;17112;48.636;10.152;2023-05-15T03:09:43;2.83;;;2.28;;
30303;SDS011;17112;48.636;10.152;2023-05-15T03:12:09;4.10;;;2.83;;
30303;SDS011;17112;48.636;10.152;2023-05-15T03:14:35;3.75;;;2.67;;
30303;SDS011;17112;48.636;10.152;2023-05-15T03:17:00;7.78;;;3.22;;
30303;SDS011;17112;48.636;10.152;2023-05-15T03:19:27;5.90;;;2.88;;
30303;SDS011;17112;48.636;10.152;2023-05-15T03:21:52;2.60;;;2.40;;
30303;SDS011;17112;48.636;10.152;2023-05-15T03:24:18;3.47;;;2.88;;
30303;SDS011;17112;48.636;10.152;2023-05-15T03:26:44;4.55;;;3.00;;
30303;SDS011;17112;48.636;10.152;2023-05-15T03:29:10;3.38;;;2.83;;
30303;SDS011;17112;48.636;10.152;2023-05-15T03:31:36;3.58;;;2.58;;
30303;SDS011;17112;48.636;10.152;2023-05-15T03:34:02;3.90;;;2.80;;
30303;SDS011;17112;48.636;10.152;2023-05-15T03:36:28;3.40;;;2.90;;
30303;SDS011;17112;48.636;10.152;2023-05-15T03:38:53;4.32;;;2.97;;
30303;SDS011;17112;48.636;10.152;2023-05-15T03:41:24;2.75;;;2.55;;
30303;SDS011;17112;48.636;10.152;2023-05-15T03:43:51;2.97;;;2.50;;
30303;SDS011;17112;48.636;10.152;2023-05-15T03:46:17;2.40;;;2.20;;
30303;SDS011;17112;48.636;10.152;2023-05-15T03:48:43;2.92;;;2.63;;
30303;SDS011;17112;48.636;10.152;2023-05-15T03:51:08;4.55;;;2.80;;
30303;SDS011;17112;48.636;10.152;2023-05-15T03:53:34;4.55;;;2.55;;
30303;SDS011;17112;48.636;10.152;2023-05-15T03:56:00;2.47;;;2.28;;
30303;SDS011;17112;48.636;10.152;2023-05-15T03:58:27;2.50;;;2.25;;
30303;SDS011;17112;48.636;10.152;2023-05-15T04:00:53;4.88;;;2.72;;
30303;SDS011;17112;48.636;10.152;2023-05-15T04:03:19;5.32;;;3.10;;
30303;SDS011;17112;48.636;10.152;2023-05-15T04:05:44;3.15;;;2.42;;
30303;SDS011;17112;48.636;10.152;2023-05-15T04:08:13;3.03;;;2.53;;
30303;SDS011;17112;48.636;10.152;2023-05-15T04:10:40;4.35;;;2.83;;
30303;SDS011;17112;48.636;10.152;2023-05-15T04:13:05;4.18;;;2.85;;
30303;SDS011;17112;48.636;10.152;2023-05-15T04:15:31;4.85;;;3.63;;
30303;SDS011;17112;48.636;10.152;2023-05-15T04:17:57;4.72;;;3.88;;
30303;SDS011;17112;48.636;10.152;2023-05-15T04:20:23;6.25;;;3.97;;
30303;SDS011;17112;48.636;10.152;2023-05-15T04:22:49;5.10;;;4.53;;
30303;SDS011;17112;48.636;10.152;2023-05-15T04:25:16;6.53;;;4.78;;
30303;SDS011;17112;48.636;10.152;2023-05-15T04:27:42;6.15;;;5.05;;
30303;SDS011;17112;48.636;10.152;2023-05-15T04:30:08;6.40;;;5.45;;
30303;SDS011;17112;48.636;10.152;2023-05-15T04:32:35;6.28;;;5.30;;
30303;SDS011;17112;48.636;10.152;2023-05-15T04:35:02;5.82;;;5.22;;
30303;SDS011;17112;48.636;10.152;2023-05-15T04:37:36;7.38;;;5.10;;
30303;SDS011;17112;48.636;10.152;2023-05-15T04:40:02;10.65;;;5.55;;
30303;SDS011;17112;48.636;10.152;2023-05-15T04:42:28;7.07;;;5.43;;
30303;SDS011;17112;48.636;10.152;2023-05-15T04:44:54;6.03;;;5.40;;
30303;SDS011;17112;48.636;10.152;2023-05-15T04:47:19;6.38;;;5.25;;
30303;SDS011;17112;48.636;10.152;2023-05-15T04:49:45;6.88;;;5.45;;
30303;SDS011;17112;48.636;10.152;2023-05-15T04:52:14;6.95;;;5.30;;
30303;SDS011;17112;48.636;10.152;2023-05-15T04:54:40;9.25;;;5.45;;
30303;SDS011;17112;48.636;10.152;2023-05-15T04:57:06;7.60;;;5.75;;
30303;SDS011;17112;48.636;10.152;2023-05-15T04:59:32;6.90;;;5.38;;
30303;SDS011;17112;48.636;10.152;2023-05-15T05:01:58;8.18;;;5.55;;
30303;SDS011;17112;48.636;10.152;2023-05-15T05:04:24;7.75;;;5.85;;
30303;SDS011;17112;48.636;10.152;2023-05-15T05:06:50;7.05;;;5.47;;
30303;SDS011;17112;48.636;10.152;2023-05-15T05:09:17;10.02;;;6.93;;
30303;SDS011;17112;48.636;10.152;2023-05-15T05:11:44;9.25;;;6.22;;
30303;SDS011;17112;48.636;10.152;2023-05-15T05:14:12;6.15;;;5.32;;
30303;SDS011;17112;48.636;10.152;2023-05-15T05:16:38;6.97;;;5.05;;
30303;SDS011;17112;48.636;10.152;2023-05-15T05:19:04;6.97;;;5.10;;
30303;SDS011;17112;48.636;10.152;2023-05-15T05:21:30;6.82;;;5.40;;
30303;SDS011;17112;48.636;10.152;2023-05-15T05:23:56;6.78;;;5.07;;
30303;SDS011;17112;48.636;10.152;2023-05-15T05:26:22;6.85;;;5.05;;
30303;SDS011;17112;48.636;10.152;2023-05-15T05:28:49;7.32;;;4.70;;
30303;SDS011;17112;48.636;10.152;2023-05-15T05:31:14;5.28;;;4.70;;
30303;SDS011;17112;48.636;10.152;2023-05-15T05:33:40;5.80;;;4.63;;
30303;SDS011;17112;48.636;10.152;2023-05-15T05:36:06;6.63;;;4.78;;
30303;SDS011;17112;48.636;10.152;2023-05-15T05:38:34;6.63;;;5.18;;
30303;SDS011;17112;48.636;10.152;2023-05-15T05:41:01;5.32;;;4.40;;
30303;SDS011;17112;48.636;10.152;2023-05-15T05:43:27;4.47;;;3.90;;
30303;SDS011;17112;48.636;10.152;2023-05-15T05:45:54;6.40;;;4.35;;
30303;SDS011;17112;48.636;10.152;2023-05-15T05:48:20;5.47;;;4.10;;
30303;SDS011;17112;48.636;10.152;2023-05-15T05:50:48;6.20;;;4.47;;
30303;SDS011;17112;48.636;10.152;2023-05-15T05:53:17;5.40;;;4.03;;
30303;SDS011;17112;48.636;10.152;2023-05-15T05:55:42;8.55;;;4.40;;
30303;SDS011;17112;48.636;10.152;2023-05-15T05:58:08;5.13;;;4.28;;
30303;SDS011;17112;48.636;10.152;2023-05-15T06:00:34;5.43;;;4.40;;
30303;SDS011;17112;48.636;10.152;2023-05-15T06:03:00;6.28;;;4.60;;
30303;SDS011;17112;48.636;10.152;2023-05-15T06:05:26;5.25;;;4.05;;
30303;SDS011;17112;48.636;10.152;2023-05-15T06:07:53;5.32;;;3.95;;
30303;SDS011;17112;48.636;10.152;2023-05-15T06:10:19;6.10;;;4.15;;
30303;SDS011;17112;48.636;10.152;2023-05-15T06:12:45;4.03;;;3.63;;
30303;SDS011;17112;48.636;10.152;2023-05-15T06:15:11;6.75;;;3.58;;
30303;SDS011;17112;48.636;10.152;2023-05-15T06:17:37;6.60;;;4.00;;
30303;SDS011;17112;48.636;10.152;2023-05-15T06:20:03;5.95;;;4.18;;
30303;SDS011;17112;48.636;10.152;2023-05-15T06:22:31;7.35;;;3.95;;
30303;SDS011;17112;48.636;10.152;2023-05-15T06:24:57;5.07;;;3.75;;
30303;SDS011;17112;48.636;10.152;2023-05-15T06:27:23;4.30;;;3.65;;
30303;SDS011;17112;48.636;10.152;2023-05-15T06:29:50;7.22;;;4.05;;
30303;SDS011;17112;48.636;10.152;2023-05-15T06:32:16;4.80;;;3.60;;
30303;SDS011;17112;48.636;10.152;2023-05-15T06:34:42;4.05;;;3.63;;
30303;SDS011;17112;48.636;10.152;2023-05-15T06:37:07;5.47;;;3.83;;
30303;SDS011;17112;48.636;10.152;2023-05-15T06:39:33;4.55;;;3.90;;
30303;SDS011;17112;48.636;10.152;2023-05-15T06:41:59;4.15;;;3.35;;
30303;SDS011;17112;48.636;10.152;2023-05-15T06:44:28;4.40;;;3.50;;
30303;SDS011;17112;48.636;10.152;2023-05-15T06:46:54;4.47;;;3.38;;
30303;SDS011;17112;48.636;10.152;2023-05-15T06:49:20;7.30;;;3.90;;
30303;SDS011;17112;48.636;10.152;2023-05-15T06:51:46;5.95;;;3.92;;
30303;SDS011;17112;48.636;10.152;2023-05-15T06:54:11;3.53;;;3.08;;
30303;SDS011;17112;48.636;10.152;2023-05-15T06:56:37;5.03;;;3.25;;
30303;SDS011;17112;48.636;10.152;2023-05-15T06:59:03;4.40;;;3.53;;
30303;SDS011;17112;48.636;10.152;2023-05-15T07:01:29;6.10;;;4.10;;
30303;SDS011;17112;48.636;10.152;2023-05-15T07:03:55;4.88;;;3.90;;
30303;SDS011;17112;48.636;10.152;2023-05-15T07:06:21;4.55;;;3.35;;
30303;SDS011;17112;48.636;10.152;2023-05-15T07:08:47;6.47;;;3.28;;
30303;SDS011;17112;48.636;10.152;2023-05-15T07:11:13;5.05;;;3.58;;
30303;SDS011;17112;48.636;10.152;2023-05-15T07:13:39;3.75;;;3.38;;
30303;SDS011;17112;48.636;10.152;2023-05-15T07:16:05;4.97;;;3.08;;
30303;SDS011;17112;48.636;10.152;2023-05-15T07:18:31;3.78;;;3.03;;
30303;SDS011;17112;48.636;10.152;2023-05-15T07:20:56;4.60;;;3.50;;
30303;SDS011;17112;48.636;10.152;2023-05-15T07:23:22;6.35;;;3.55;;
30303;SDS011;17112;48.636;10.152;2023-05-15T07:25:48;4.80;;;3.63;;
30303;SDS011;17112;48.636;10.152;2023-05-15T07:28:13;4.93;;;3.92;;
30303;SDS011;17112;48.636;10.152;2023-05-15T07:30:39;3.85;;;3.30;;
30303;SDS011;17112;48.636;10.152;2023-05-15T07:33:05;5.00;;;3.85;;
30303;SDS011;17112;48.636;10.152;2023-05-15T07:35:30;5.72;;;3.70;;
30303;SDS011;17112;48.636;10.152;2023-05-15T07:37:56;4.13;;;3.42;;
30303;SDS011;17112;48.636;10.152;2023-05-15T07:40:22;4.57;;;3.60;;
30303;SDS011;17112;48.636;10.152;2023-05-15T07:42:48;4.40;;;3.58;;
30303;SDS011;17112;48.636;10.152;2023-05-15T07:45:13;6.55;;;3.55;;
30303;SDS011;17112;48.636;10.152;2023-05-15T07:47:47;6.75;;;4.20;;
30303;SDS011;17112;48.636;10.152;2023-05-15T07:50:13;4.83;;;3.23;;
30303;SDS011;17112;48.636;10.152;2023-05-15T07:52:39;5.22;;;3.10;;
30303;SDS011;17112;48.636;10.152;2023-05-15T07:55:06;5.00;;;3.13;;
30303;SDS011;17112;48.636;10.152;2023-05-15T07:57:32;3.72;;;2.95;;
30303;SDS011;17112;48.636;10.152;2023-05-15T07:59:58;3.05;;;2.70;;
30303;SDS011;17112;48.636;10.152;2023-05-15T08:02:23;6.90;;;3.10;;
30303;SDS011;17112;48.636;10.152;2023-05-15T08:04:49;3.17;;;2.83;;
30303;SDS011;17112;48.636;10.152;2023-05-15T08:07:15;3.45;;;2.67;;
30303;SDS011;17112;48.636;10.152;2023-05-15T08:09:40;2.80;;;2.45;;
30303;SDS011;17112;48.636;10.152;2023-05-15T08:12:19;3.05;;;2.55;;
30303;SDS011;17112;48.636;10.152;2023-05-15T08:14:49;3.72;;;2.45;;
30303;SDS011;17112;48.636;10.152;2023-05-15T08:17:16;3.83;;;2.85;;
30303;SDS011;17112;48.636;10.152;2023-05-15T08:19:42;3.13;;;2.83;;
30303;SDS011;17112;48.636;10.152;2023-05-15T08:22:07;3.40;;;2.80;;
30303;SDS011;17112;48.636;10.152;2023-05-15T08:24:33;3.42;;;2.65;;
30303;SDS011;17112;48.636;10.152;2023-05-15T08:26:59;2.85;;;2.53;;
30303;SDS011;17112;48.636;10.152;2023-05-15T08:29:25;3.00;;;2.70;;
30303;SDS011;17112;48.636;10.152;2023-05-15T08:31:50;3.03;;;2.60;;
30303;SDS011;17112;48.636;10.152;2023-05-15T08:34:17;6.82;;;3.22;;
30303;SDS011;17112;48.636;10.152;2023-05-15T08:36:42;4.50;;;2.47;;
30303;SDS011;17112;48.636;10.152;2023-05-15T08:39:09;2.95;;;2.65;;
30303;SDS011;17112;48.636;10.152;2023-05-15T08:44:29;3.13;;;2.70;;
30303;SDS011;17112;48.636;10.152;2023-05-15T08:46:55;3.30;;;2.72;;
30303;SDS011;17112;48.636;10.152;2023-05-15T08:52:14;4.40;;;2.25;;
30303;SDS011;17112;48.636;10.152;2023-05-15T08:54:40;5.03;;;2.60;;
30303;SDS011;17112;48.636;10.152;2023-05-15T08:57:07;6.05;;;3.00;;
30303;SDS011;17112;48.636;10.152;2023-05-15T08:59:33;3.13;;;2.45;;
30303;SDS011;17112;48.636;10.152;2023-05-15T09:01:59;3.45;;;2.50;;
30303;SDS011;17112;48.636;10.152;2023-05-15T09:04:26;3.10;;;2.45;;
30303;SDS011;17112;48.636;10.152;2023-05-15T09:06:52;5.88;;;2.55;;
30303;SDS011;17112;48.636;10.152;2023-05-15T09:09:19;3.20;;;2.30;;
30303;SDS011;17112;48.636;10.152;2023-05-15T09:11:47;5.90;;;2.63;;
30303;SDS011;17112;48.636;10.152;2023-05-15T09:14:12;3.55;;;2.60;;
30303;SDS011;17112;48.636;10.152;2023-05-15T09:16:38;3.70;;;2.65;;
30303;SDS011;17112;48.636;10.152;2023-05-15T09:19:04;3.75;;;2.88;;
30303;SDS011;17112;48.636;10.152;2023-05-15T09:21:30;2.95;;;2.60;;
30303;SDS011;17112;48.636;10.152;2023-05-15T09:29:31;5.82;;;2.58;;
30303;SDS011;17112;48.636;10.152;2023-05-15T09:32:16;6.65;;;2.80;;
30303;SDS011;17112;48.636;10.152;2023-05-15T09:34:43;3.63;;;2.70;;
30303;SDS011;17112;48.636;10.152;2023-05-15T09:37:09;3.83;;;3.03;;
30303;SDS011;17112;48.636;10.152;2023-05-15T09:39:51;3.00;;;2.58;;
30303;SDS011;17112;48.636;10.152;2023-05-15T09:42:17;4.07;;;2.90;;
30303;SDS011;17112;48.636;10.152;2023-05-15T09:44:43;3.60;;;2.45;;
30303;SDS011;17112;48.636;10.152;2023-05-15T09:47:11;2.78;;;2.55;;
30303;SDS011;17112;48.636;10.152;2023-05-15T09:49:38;3.55;;;2.70;;
30303;SDS011;17112;48.636;10.152;2023-05-15T09:52:07;3.50;;;2.47;;
30303;SDS011;17112;48.636;10.152;2023-05-15T09:54:34;4.45;;;2.63;;
30303;SDS011;17112;48.636;10.152;2023-05-15T09:57:07;2.72;;;2.30;;
30303;SDS011;17112;48.636;10.152;2023-05-15T09:59:34;3.53;;;2.63;;
30303;SDS011;17112;48.636;10.152;2023-05-15T10:02:00;3.50;;;2.55;;
30303;SDS011;17112;48.636;10.152;2023-05-15T10:04:25;4.35;;;2.40;;
30303;SDS011;17112;48.636;10.152;2023-05-15T10:06:57;3.17;;;2.40;;
30303;SDS011;17112;48.636;10.152;2023-05-15T10:09:28;4.85;;;2.45;;
30303;SDS011;17112;48.636;10.152;2023-05-15T10:11:56;3.00;;;2.60;;
30303;SDS011;17112;48.636;10.152;2023-05-15T10:14:22;2.88;;;2.30;;
30303;SDS011;17112;48.636;10.152;2023-05-15T10:16:50;3.05;;;2.45;;
30303;SDS011;17112;48.636;10.152;2023-05-15T10:19:17;4.40;;;2.72;;
30303;SDS011;17112;48.636;10.152;2023-05-15T10:21:46;2.63;;;2.38;;
30303;SDS011;17112;48.636;10.152;2023-05-15T10:24:12;3.25;;;2.10;;
30303;SDS011;17112;48.636;10.152;2023-05-15T10:26:41;4.30;;;2.03;;
30303;SDS011;17112;48.636;10.152;2023-05-15T10:29:15;3.47;;;2.40;;
30303;SDS011;17112;48.636;10.152;2023-05-15T10:31:42;2.53;;;2.28;;
30303;SDS011;17112;48.636;10.152;2023-05-15T10:34:09;4.40;;;2.70;;
30303;SDS011;17112;48.636;10.152;2023-05-15T10:36:37;4.43;;;2.38;;
30303;SDS011;17112;48.636;10.152;2023-05-15T10:39:04;2.70;;;2.10;;
30303;SDS011;17112;48.636;10.152;2023-05-15T10:41:32;2.40;;;2.20;;
30303;SDS011;17112;48.636;10.152;2023-05-15T10:44:00;2.15;;;1.70;;
30303;SDS011;17112;48.636;10.152;2023-05-15T10:46:27;3.22;;;1.40;;
30303;SDS011;17112;48.636;10.152;2023-05-15T10:48:54;2.13;;;1.48;;
30303;SDS011;17112;48.636;10.152;2023-05-15T10:51:25;3.03;;;2.00;;
30303;SDS011;17112;48.636;10.152;2023-05-15T10:53:55;2.20;;;2.00;;
30303;SDS011;17112;48.636;10.152;2023-05-15T10:56:31;4.03;;;1.73;;
30303;SDS011;17112;48.636;10.152;2023-05-15T10:59:03;4.50;;;2.13;;
30303;SDS011;17112;48.636;10.152;2023-05-15T11:01:34;3.08;;;2.00;;
30303;SDS011;17112;48.636;10.152;2023-05-15T11:04:09;5.47;;;2.45;;
30303;SDS011;17112;48.636;10.152;2023-05-15T11:06:36;3.60;;;2.33;;
30303;SDS011;17112;48.636;10.152;2023-05-15T11:14:16;3.17;;;2.25;;
30303;SDS011;17112;48.636;10.152;2023-05-15T11:19:21;2.20;;;2.00;;
30303;SDS011;17112;48.636;10.152;2023-05-15T11:21:47;2.13;;;1.90;;
30303;SDS011;17112;48.636;10.152;2023-05-15T11:24:17;2.72;;;2.20;;
30303;SDS011;17112;48.636;10.152;2023-05-15T11:26:43;5.95;;;2.40;;
30303;SDS011;17112;48.636;10.152;2023-05-15T11:29:18;3.75;;;2.20;;
30303;SDS011;17112;48.636;10.152;2023-05-15T11:31:44;6.40;;;2.60;;
30303;SDS011;17112;48.636;10.152;2023-05-15T11:34:09;3.90;;;2.55;;
30303;SDS011;17112;48.636;10.152;2023-05-15T11:36:38;3.83;;;2.30;;
30303;SDS011;17112;48.636;10.152;2023-05-15T11:39:08;4.07;;;2.10;;
30303;SDS011;17112;48.636;10.152;2023-05-15T11:41:35;3.05;;;2.25;;
30303;SDS011;17112;48.636;10.152;2023-05-15T11:44:01;2.13;;;1.90;;
30303;SDS011;17112;48.636;10.152;2023-05-15T11:46:27;2.22;;;2.03;;
30303;SDS011;17112;48.636;10.152;2023-05-15T11:48:54;2.85;;;2.30;;
30303;SDS011;17112;48.636;10.152;2023-05-15T11:51:21;2.47;;;2.28;;
30303;SDS011;17112;48.636;10.152;2023-05-15T11:53:50;3.88;;;2.10;;
30303;SDS011;17112;48.636;10.152;2023-05-15T11:56:21;4.60;;;1.98;;
30303;SDS011;17112;48.636;10.152;2023-05-15T11:58:53;2.25;;;1.70;;
30303;SDS011;17112;48.636;10.152;2023-05-15T12:01:20;2.78;;;1.50;;
30303;SDS011;17112;48.636;10.152;2023-05-15T12:03:47;1.58;;;1.48;;
30303;SDS011;17112;48.636;10.152;2023-05-15T12:06:13;2.08;;;1.38;;
30303;SDS011;17112;48.636;10.152;2023-05-15T12:08:39;1.25;;;1.13;;
30303;SDS011;17112;48.636;10.152;2023-05-15T12:11:06;1.20;;;1.10;;
30303;SDS011;17112;48.636;10.152;2023-05-15T12:13:32;1.92;;;1.38;;
30303;SDS011;17112;48.636;10.152;2023-05-15T12:15:59;2.20;;;1.40;;
30303;SDS011;17112;48.636;10.152;2023-05-15T12:18:27;3.90;;;1.58;;
30303;SDS011;17112;48.636;10.152;2023-05-15T12:20:53;1.60;;;1.27;;
30303;SDS011;17112;48.636;10.152;2023-05-15T12:23:20;2.15;;;1.20;;
30303;SDS011;17112;48.636;10.152;2023-05-15T12:25:47;3.13;;;1.30;;
30303;SDS011;17112;48.636;10.152;2023-05-15T12:28:14;2.58;;;1.80;;
30303;SDS011;17112;48.636;10.152;2023-05-15T12:30:41;2.95;;;1.80;;
30303;SDS011;17112;48.636;10.152;2023-05-15T12:33:07;1.90;;;1.67;;
30303;SDS011;17112;48.636;10.152;2023-05-15T12:35:35;2.65;;;2.15;;
30303;SDS011;17112;48.636;10.152;2023-05-15T12:38:05;3.13;;;2.00;;
30303;SDS011;17112;48.636;10.152;2023-05-15T12:40:35;3.25;;;1.92;;
30303;SDS011;17112;48.636;10.152;2023-05-15T12:43:07;2.17;;;1.95;;
30303;SDS011;17112;48.636;10.152;2023-05-15T12:45:33;4.35;;;2.22;;
30303;SDS011;17112;48.636;10.152;2023-05-15T12:48:01;6.07;;;2.53;;
30303;SDS011;17112;48.636;10.152;2023-05-15T12:50:30;2.63;;;2.20;;
30303;SDS011;17112;48.636;10.152;2023-05-15T12:52:58;5.75;;;2.20;;
30303;SDS011;17112;48.636;10.152;2023-05-15T12:57:54;2.42;;;2.22;;
30303;SDS011;17112;48.636;10.152;2023-05-15T13:00:21;3.10;;;2.55;;
30303;SDS011;17112;48.636;10.152;2023-05-15T13:02:56;2.67;;;2.28;;
30303;SDS011;17112;48.636;10.152;2023-05-15T13:05:23;3.53;;;2.42;;
30303;SDS011;17112;48.636;10.152;2023-05-15T13:07:52;8.20;;;2.08;;
30303;SDS011;17112;48.636;10.152;2023-05-15T13:10:22;4.03;;;2.60;;
30303;SDS011;17112;48.636;10.152;2023-05-15T13:12:49;4.75;;;2.28;;
30303;SDS011;17112;48.636;10.152;2023-05-15T13:15:29;5.10;;;2.60;;
30303;SDS011;17112;48.636;10.152;2023-05-15T13:20:27;4.45;;;2.72;;
30303;SDS011;17112;48.636;10.152;2023-05-15T13:22:54;2.58;;;2.05;;
30303;SDS011;17112;48.636;10.152;2023-05-15T13:25:20;3.40;;;2.40;;
30303;SDS011;17112;48.636;10.152;2023-05-15T13:27:46;7.80;;;2.70;;
30303;SDS011;17112;48.636;10.152;2023-05-15T13:30:13;3.28;;;1.77;;
30303;SDS011;17112;48.636;10.152;2023-05-15T13:32:39;4.15;;;1.60;;
30303;SDS011;17112;48.636;10.152;2023-05-15T13:35:05;1.80;;;1.60;;
30303;SDS011;17112;48.636;10.152;2023-05-15T13:37:31;2.47;;;1.55;;
30303;SDS011;17112;48.636;10.152;2023-05-15T13:39:56;2.80;;;1.90;;
30303;SDS011;17112;48.636;10.152;2023-05-15T13:42:22;4.18;;;1.48;;
30303;SDS011;17112;48.636;10.152;2023-05-15T13:44:47;2.30;;;1.98;;
30303;SDS011;17112;48.636;10.152;2023-05-15T13:47:13;2.33;;;1.60;;
30303;SDS011;17112;48.636;10.152;2023-05-15T13:49:39;1.67;;;1.55;;
30303;SDS011;17112;48.636;10.152;2023-05-15T13:52:05;4.20;;;1.90;;
30303;SDS011;17112;48.636;10.152;2023-05-15T13:54:31;1.85;;;1.70;;
30303;SDS011;17112;48.636;10.152;2023-05-15T13:56:57;1.73;;;1.52;;
30303;SDS011;17112;48.636;10.152;2023-05-15T13:59:22;2.70;;;1.80;;
30303;SDS011;17112;48.636;10.152;2023-05-15T14:01:48;2.97;;;1.70;;
30303;SDS011;17112;48.636;10.152;2023-05-15T14:04:14;3.75;;;1.60;;
30303;SDS011;17112;48.636;10.152;2023-05-15T14:06:39;4.55;;;1.55;;
30303;SDS011;17112;48.636;10.152;2023-05-15T14:09:05;13.18;;;2.45;;
30303;SDS011;17112;48.636;10.152;2023-05-15T14:11:31;5.55;;;1.60;;
30303;SDS011;17112;48.636;10.152;2023-05-15T14:13:57;2.10;;;1.60;;
30303;SDS011;17112;48.636;10.152;2023-05-15T14:16:23;1.52;;;1.42;;
30303;SDS011;17112;48.636;10.152;2023-05-15T14:18:49;2.17;;;1.42;;
30303;SDS011;17112;48.636;10.152;2023-05-15T14:21:14;3.85;;;1.35;;
30303;SDS011;17112;48.636;10.152;2023-05-15T14:23:40;9.07;;;1.60;;
30303;SDS011;17112;48.636;10.152;2023-05-15T14:26:05;1.83;;;1.13;;
30303;SDS011;17112;48.636;10.152;2023-05-15T14:28:31;3.03;;;1.35;;
30303;SDS011;17112;48.636;10.152;2023-05-15T14:30:58;2.20;;;1.30;;
30303;SDS011;17112;48.636;10.152;2023-05-15T14:33:24;2.20;;;1.17;;
30303;SDS011;17112;48.636;10.152;2023-05-15T14:35:50;1.17;;;1.00;;
30303;SDS011;17112;48.636;10.152;2023-05-15T14:38:16;2.10;;;1.20;;
30303;SDS011;17112;48.636;10.152;2023-05-15T14:40:42;4.55;;;1.25;;
30303;SDS011;17112;48.636;10.152;2023-05-15T14:43:08;4.13;;;1.40;;
30303;SDS011;17112;48.636;10.152;2023-05-15T14:45:34;1.92;;;1.40;;
30303;SDS011;17112;48.636;10.152;2023-05-15T14:47:59;3.85;;;1.50;;
30303;SDS011;17112;48.636;10.152;2023-05-15T14:50:25;4.13;;;1.50;;
30303;SDS011;17112;48.636;10.152;2023-05-15T14:52:51;1.60;;;1.50;;
30303;SDS011;17112;48.636;10.152;2023-05-15T14:55:18;2.40;;;1.50;;
30303;SDS011;17112;48.636;10.152;2023-05-15T14:57:47;1.50;;;1.40;;
30303;SDS011;17112;48.636;10.152;2023-05-15T15:00:13;3.47;;;1.83;;
30303;SDS011;17112;48.636;10.152;2023-05-15T15:02:40;5.55;;;1.70;;
30303;SDS011;17112;48.636;10.152;2023-05-15T15:05:06;1.50;;;1.40;;
30303;SDS011;17112;48.636;10.152;2023-05-15T15:07:56;1.95;;;1.60;;
30303;SDS011;17112;48.636;10.152;2023-05-15T15:10:25;5.75;;;1.67;;
30303;SDS011;17112;48.636;10.152;2023-05-15T15:12:51;2.53;;;1.77;;
30303;SDS011;17112;48.636;10.152;2023-05-15T15:15:17;4.18;;;1.52;;
30303;SDS011;17112;48.636;10.152;2023-05-15T15:17:43;2.60;;;1.80;;